sensor_id;sensor_type;location;lat;lon;timestamp;pressure;altitude;pressure_sealevel;temperature;humidity
59053;BME280;44843;44.728;10.396;2022-11-20T00:00:07;99770.00;;;12.70;100.00
59053;BME280;44843;44.728;10.396;2022-11-20T00:02:32;99772.72;;;12.91;100.00
59053;BME280;44843;44.728;10.396;2022-11-20T00:04:58;99769.38;;;13.01;100.00
59053;BME280;44843;44.728;10.396;2022-11-20T00:07:23;99775.44;;;12.78;100.00
59053;BME280;44843;44.728;10.396;2022-11-20T00:09:48;99775.59;;;12.77;100.00
59053;BME280;44843;44.728;10.396;2022-11-20T00:12:14;99777.50;;;12.75;100.00
59053;BME280;44843;44.728;10.396;2022-11-20T00:14:39;99779.59;;;12.70;100.00
59053;BME280;44843;44.728;10.396;2022-11-20T00:17:06;99780.94;;;12.64;100.00
59053;BME280;44843;44.728;10.396;2022-11-20T00:19:32;99788.06;;;12.62;100.00
59053;BME280;44843;44.728;10.396;2022-11-20T00:21:57;99780.94;;;12.64;100.00
59053;BME280;44843;44.728;10.396;2022-11-20T00:24:23;99785.19;;;12.54;100.00
59053;BME280;44843;44.728;10.396;2022-11-20T00:26:48;99789.00;;;12.61;100.00
59053;BME280;44843;44.728;10.396;2022-11-20T00:29:13;99780.44;;;12.59;100.00
59053;BME280;44843;44.728;10.396;2022-11-20T00:31:39;99781.97;;;12.50;100.00
59053;BME280;44843;44.728;10.396;2022-11-20T00:34:04;99790.03;;;12.47;100.00
59053;BME280;44843;44.728;10.396;2022-11-20T00:36:33;99780.41;;;12.48;100.00
59053;BME280;44843;44.728;10.396;2022-11-20T00:38:58;99793.00;;;12.43;100.00
59053;BME280;44843;44.728;10.396;2022-11-20T00:41:26;99789.78;;;12.39;100.00
59053;BME280;44843;44.728;10.396;2022-11-20T00:43:53;99786.44;;;12.37;100.00
59053;BME280;44843;44.728;10.396;2022-11-20T00:46:21;99788.50;;;12.45;100.00
59053;BME280;44843;44.728;10.396;2022-11-20T00:48:46;99793.75;;;12.56;100.00
59053;BME280;44843;44.728;10.396;2022-11-20T00:51:17;99791.97;;;12.56;100.00
59053;BME280;44843;44.728;10.396;2022-11-20T00:53:45;99795.44;;;12.68;100.00
59053;BME280;44843;44.728;10.396;2022-11-20T00:56:15;99789.13;;;12.82;100.00
59053;BME280;44843;44.728;10.396;2022-11-20T00:58:43;99789.59;;;12.87;100.00
59053;BME280;44843;44.728;10.396;2022-11-20T01:01:17;99788.53;;;12.78;100.00
59053;BME280;44843;44.728;10.396;2022-11-20T01:03:45;99782.47;;;12.67;100.00
59053;BME280;44843;44.728;10.396;2022-11-20T01:06:25;99787.09;;;12.63;100.00
59053;BME280;44843;44.728;10.396;2022-11-20T01:08:53;99793.50;;;12.59;100.00
59053;BME280;44843;44.728;10.396;2022-11-20T01:11:21;99789.34;;;12.56;100.00
59053;BME280;44843;44.728;10.396;2022-11-20T01:13:48;99793.38;;;12.49;100.00
59053;BME280;44843;44.728;10.396;2022-11-20T01:16:16;99792.19;;;12.42;100.00
59053;BME280;44843;44.728;10.396;2022-11-20T01:18:47;99793.00;;;12.43;100.00
59053;BME280;44843;44.728;10.396;2022-11-20T01:21:25;99795.75;;;12.52;100.00
59053;BME280;44843;44.728;10.396;2022-11-20T01:23:52;99799.38;;;12.27;100.00
59053;BME280;44843;44.728;10.396;2022-11-20T01:26:20;99798.56;;;12.27;100.00
59053;BME280;44843;44.728;10.396;2022-11-20T01:28:46;99797.25;;;12.32;100.00
59053;BME280;44843;44.728;10.396;2022-11-20T01:33:49;99799.59;;;12.24;100.00
59053;BME280;44843;44.728;10.396;2022-11-20T01:36:16;99804.72;;;12.26;100.00
59053;BME280;44843;44.728;10.396;2022-11-20T01:38:42;99813.72;;;12.22;100.00
59053;BME280;44843;44.728;10.396;2022-11-20T01:41:09;99811.94;;;12.22;100.00
59053;BME280;44843;44.728;10.396;2022-11-20T01:43:35;99807.22;;;12.27;100.00
59053;BME280;44843;44.728;10.396;2022-11-20T01:46:15;99809.75;;;12.29;100.00
59053;BME280;44843;44.728;10.396;2022-11-20T01:51:33;99813.56;;;12.36;100.00
59053;BME280;44843;44.728;10.396;2022-11-20T01:54:03;99822.94;;;12.39;100.00
59053;BME280;44843;44.728;10.396;2022-11-20T01:56:31;99817.00;;;12.36;100.00
59053;BME280;44843;44.728;10.396;2022-11-20T01:59:02;99808.06;;;12.28;100.00
59053;BME280;44843;44.728;10.396;2022-11-20T02:01:29;99808.66;;;12.20;100.00
59053;BME280;44843;44.728;10.396;2022-11-20T02:03:55;99804.44;;;12.18;100.00
59053;BME280;44843;44.728;10.396;2022-11-20T02:06:55;99815.03;;;12.16;100.00
59053;BME280;44843;44.728;10.396;2022-11-20T02:09:22;99812.88;;;12.10;100.00
59053;BME280;44843;44.728;10.396;2022-11-20T02:11:49;99813.69;;;12.10;100.00
59053;BME280;44843;44.728;10.396;2022-11-20T02:14:14;99820.34;;;12.03;100.00
59053;BME280;44843;44.728;10.396;2022-11-20T02:16:44;99817.47;;;12.06;100.00
59053;BME280;44843;44.728;10.396;2022-11-20T02:19:30;99811.16;;;11.98;100.00
59053;BME280;44843;44.728;10.396;2022-11-20T02:22:05;99817.53;;;11.93;100.00
59053;BME280;44843;44.728;10.396;2022-11-20T02:24:32;99811.66;;;12.03;100.00
59053;BME280;44843;44.728;10.396;2022-11-20T02:27:05;99814.72;;;11.97;100.00
59053;BME280;44843;44.728;10.396;2022-11-20T02:29:44;99814.09;;;11.93;100.00
59053;BME280;44843;44.728;10.396;2022-11-20T02:34:43;99822.19;;;11.90;100.00
59053;BME280;44843;44.728;10.396;2022-11-20T02:37:09;99816.72;;;11.93;100.00
59053;BME280;44843;44.728;10.396;2022-11-20T02:39:34;99823.03;;;12.02;100.00
59053;BME280;44843;44.728;10.396;2022-11-20T02:42:00;99823.16;;;12.00;100.00
59053;BME280;44843;44.728;10.396;2022-11-20T02:44:26;99813.69;;;12.10;100.00
59053;BME280;44843;44.728;10.396;2022-11-20T02:46:51;99814.31;;;12.14;100.00
59053;BME280;44843;44.728;10.396;2022-11-20T02:49:16;99813.31;;;12.04;100.00
59053;BME280;44843;44.728;10.396;2022-11-20T02:51:42;99820.53;;;12.00;100.00
59053;BME280;44843;44.728;10.396;2022-11-20T02:54:07;99812.44;;;11.92;100.00
59053;BME280;44843;44.728;10.396;2022-11-20T02:56:32;99812.09;;;11.97;100.00
59053;BME280;44843;44.728;10.396;2022-11-20T02:58:58;99815.56;;;11.84;100.00
59053;BME280;44843;44.728;10.396;2022-11-20T03:01:23;99812.84;;;11.86;100.00
59053;BME280;44843;44.728;10.396;2022-11-20T03:03:49;99812.22;;;11.82;100.00
59053;BME280;44843;44.728;10.396;2022-11-20T03:06:16;99811.75;;;11.77;100.00
59053;BME280;44843;44.728;10.396;2022-11-20T03:08:41;99810.91;;;11.77;100.00
59053;BME280;44843;44.728;10.396;2022-11-20T03:11:07;99810.28;;;11.73;100.00
59053;BME280;44843;44.728;10.396;2022-11-20T03:13:33;99807.59;;;11.74;100.00
59053;BME280;44843;44.728;10.396;2022-11-20T03:16:08;99810.63;;;11.68;100.00
59053;BME280;44843;44.728;10.396;2022-11-20T03:18:34;99817.00;;;11.64;100.00
59053;BME280;44843;44.728;10.396;2022-11-20T03:21:00;99817.44;;;11.58;100.00
59053;BME280;44843;44.728;10.396;2022-11-20T03:23:25;99814.84;;;11.58;100.00
59053;BME280;44843;44.728;10.396;2022-11-20T03:25:51;99824.34;;;11.59;100.00
59053;BME280;44843;44.728;10.396;2022-11-20T03:28:16;99817.69;;;11.55;100.00
59053;BME280;44843;44.728;10.396;2022-11-20T03:30:41;99819.47;;;11.54;100.00
59053;BME280;44843;44.728;10.396;2022-11-20T03:33:07;99820.28;;;11.55;100.00
59053;BME280;44843;44.728;10.396;2022-11-20T03:35:32;99823.78;;;11.67;100.00
59053;BME280;44843;44.728;10.396;2022-11-20T03:37:58;99815.91;;;11.80;100.00
59053;BME280;44843;44.728;10.396;2022-11-20T03:40:23;99818.28;;;11.83;100.00
59053;BME280;44843;44.728;10.396;2022-11-20T03:42:48;99815.88;;;11.92;100.00
59053;BME280;44843;44.728;10.396;2022-11-20T03:45:15;99820.50;;;11.89;100.00
59053;BME280;44843;44.728;10.396;2022-11-20T03:47:41;99826.06;;;11.71;100.00
59053;BME280;44843;44.728;10.396;2022-11-20T03:50:07;99827.47;;;11.64;100.00
59053;BME280;44843;44.728;10.396;2022-11-20T03:52:33;99828.13;;;11.55;100.00
59053;BME280;44843;44.728;10.396;2022-11-20T03:54:58;99827.09;;;11.45;100.00
59053;BME280;44843;44.728;10.396;2022-11-20T03:57:24;99829.81;;;11.43;100.00
59053;BME280;44843;44.728;10.396;2022-11-20T03:59:49;99827.75;;;11.36;100.00
59053;BME280;44843;44.728;10.396;2022-11-20T04:02:14;99832.53;;;11.42;100.00
59053;BME280;44843;44.728;10.396;2022-11-20T04:04:40;99833.78;;;11.36;100.00
59053;BME280;44843;44.728;10.396;2022-11-20T04:07:05;99843.50;;;11.34;100.00
59053;BME280;44843;44.728;10.396;2022-11-20T04:09:31;99841.13;;;11.31;100.00
59053;BME280;44843;44.728;10.396;2022-11-20T04:11:56;99847.28;;;11.30;100.00
59053;BME280;44843;44.728;10.396;2022-11-20T04:14:22;99849.16;;;11.28;100.00
59053;BME280;44843;44.728;10.396;2022-11-20T04:16:47;99855.09;;;11.30;100.00
59053;BME280;44843;44.728;10.396;2022-11-20T04:19:14;99852.22;;;11.22;100.00
59053;BME280;44843;44.728;10.396;2022-11-20T04:21:41;99855.84;;;11.19;100.00
59053;BME280;44843;44.728;10.396;2022-11-20T04:24:07;99857.31;;;11.23;100.00
59053;BME280;44843;44.728;10.396;2022-11-20T04:26:32;99860.13;;;11.20;100.00
59053;BME280;44843;44.728;10.396;2022-11-20T04:28:58;99853.53;;;11.27;100.00
59053;BME280;44843;44.728;10.396;2022-11-20T04:31:27;99861.13;;;11.43;100.00
59053;BME280;44843;44.728;10.396;2022-11-20T04:33:53;99850.16;;;11.51;100.00
59053;BME280;44843;44.728;10.396;2022-11-20T04:36:23;99851.28;;;11.60;100.00
59053;BME280;44843;44.728;10.396;2022-11-20T04:38:57;99837.59;;;11.56;100.00
59053;BME280;44843;44.728;10.396;2022-11-20T04:41:28;99836.38;;;11.49;100.00
59053;BME280;44843;44.728;10.396;2022-11-20T04:43:57;99843.09;;;11.40;100.00
59053;BME280;44843;44.728;10.396;2022-11-20T04:46:25;99841.94;;;11.31;100.00
59053;BME280;44843;44.728;10.396;2022-11-20T04:48:52;99841.94;;;11.31;100.00
59053;BME280;44843;44.728;10.396;2022-11-20T04:51:17;99842.91;;;11.30;100.00
59053;BME280;44843;44.728;10.396;2022-11-20T04:53:43;99852.00;;;11.25;100.00
59053;BME280;44843;44.728;10.396;2022-11-20T04:56:10;99853.47;;;11.16;100.00
59053;BME280;44843;44.728;10.396;2022-11-20T04:58:35;99855.97;;;11.18;100.00
59053;BME280;44843;44.728;10.396;2022-11-20T05:01:06;99855.44;;;11.12;100.00
59053;BME280;44843;44.728;10.396;2022-11-20T05:03:32;99852.22;;;11.09;100.00
59053;BME280;44843;44.728;10.396;2022-11-20T05:06:05;99860.16;;;11.07;100.00
59053;BME280;44843;44.728;10.396;2022-11-20T05:08:31;99857.84;;;11.03;100.00
59053;BME280;44843;44.728;10.396;2022-11-20T05:11:05;99854.84;;;11.09;100.00
59053;BME280;44843;44.728;10.396;2022-11-20T05:13:31;99859.50;;;11.04;100.00
59053;BME280;44843;44.728;10.396;2022-11-20T05:16:11;99857.44;;;10.96;100.00
59053;BME280;44843;44.728;10.396;2022-11-20T05:18:38;99862.03;;;10.92;100.00
59053;BME280;44843;44.728;10.396;2022-11-20T05:21:05;99858.91;;;10.87;100.00
59053;BME280;44843;44.728;10.396;2022-11-20T05:23:31;99862.97;;;10.91;100.00
59053;BME280;44843;44.728;10.396;2022-11-20T05:25:57;99866.19;;;10.95;100.00
59053;BME280;44843;44.728;10.396;2022-11-20T05:28:23;99861.19;;;11.05;100.00
59053;BME280;44843;44.728;10.396;2022-11-20T05:30:49;99862.84;;;11.06;100.00
59053;BME280;44843;44.728;10.396;2022-11-20T05:33:15;99873.19;;;11.20;100.00
59053;BME280;44843;44.728;10.396;2022-11-20T05:35:41;99874.34;;;11.16;100.00
59053;BME280;44843;44.728;10.396;2022-11-20T05:38:06;99886.22;;;10.95;100.00
59053;BME280;44843;44.728;10.396;2022-11-20T05:40:32;99894.03;;;10.82;100.00
59053;BME280;44843;44.728;10.396;2022-11-20T05:42:57;99894.25;;;10.79;100.00
59053;BME280;44843;44.728;10.396;2022-11-20T05:45:23;99899.25;;;10.69;100.00
59053;BME280;44843;44.728;10.396;2022-11-20T05:47:48;99899.66;;;10.63;100.00
59053;BME280;44843;44.728;10.396;2022-11-20T05:50:14;99902.06;;;10.66;100.00
59053;BME280;44843;44.728;10.396;2022-11-20T05:52:40;99903.28;;;10.60;100.00
59053;BME280;44843;44.728;10.396;2022-11-20T05:55:06;99909.38;;;10.61;100.00
59053;BME280;44843;44.728;10.396;2022-11-20T05:57:32;99911.13;;;10.60;100.00
59053;BME280;44843;44.728;10.396;2022-11-20T05:59:57;99908.06;;;10.54;100.00
59053;BME280;44843;44.728;10.396;2022-11-20T06:02:22;99909.75;;;10.55;100.00
59053;BME280;44843;44.728;10.396;2022-11-20T06:04:48;99902.97;;;10.52;100.00
59053;BME280;44843;44.728;10.396;2022-11-20T06:07:14;99903.91;;;10.51;100.00
59053;BME280;44843;44.728;10.396;2022-11-20T06:09:39;99904.94;;;10.48;100.00
59053;BME280;44843;44.728;10.396;2022-11-20T06:12:05;99904.28;;;10.45;100.00
59053;BME280;44843;44.728;10.396;2022-11-20T06:14:30;99905.91;;;10.47;100.00
59053;BME280;44843;44.728;10.396;2022-11-20T06:16:56;99913.38;;;10.39;100.00
59053;BME280;44843;44.728;10.396;2022-11-20T06:19:21;99914.44;;;10.49;100.00
59053;BME280;44843;44.728;10.396;2022-11-20T06:21:48;99911.34;;;10.70;100.00
59053;BME280;44843;44.728;10.396;2022-11-20T06:24:14;99916.78;;;10.80;100.00
59053;BME280;44843;44.728;10.396;2022-11-20T06:26:40;99914.91;;;10.82;100.00
59053;BME280;44843;44.728;10.396;2022-11-20T06:29:06;99920.56;;;10.88;100.00
59053;BME280;44843;44.728;10.396;2022-11-20T06:31:31;99930.03;;;10.77;100.00
59053;BME280;44843;44.728;10.396;2022-11-20T06:34:00;99925.75;;;10.63;100.00
59053;BME280;44843;44.728;10.396;2022-11-20T06:36:26;99929.69;;;10.68;100.00
59053;BME280;44843;44.728;10.396;2022-11-20T06:38:52;99933.75;;;10.60;100.00
59053;BME280;44843;44.728;10.396;2022-11-20T06:41:19;99942.78;;;10.41;100.00
59053;BME280;44843;44.728;10.396;2022-11-20T06:43:46;99938.47;;;10.40;100.00
59053;BME280;44843;44.728;10.396;2022-11-20T06:46:13;99945.56;;;10.38;100.00
59053;BME280;44843;44.728;10.396;2022-11-20T06:48:39;99955.16;;;10.38;100.00
59053;BME280;44843;44.728;10.396;2022-11-20T06:51:06;99952.38;;;10.26;100.00
59053;BME280;44843;44.728;10.396;2022-11-20T06:53:32;99958.63;;;10.24;100.00
59053;BME280;44843;44.728;10.396;2022-11-20T06:55:58;99964.66;;;10.24;100.00
59053;BME280;44843;44.728;10.396;2022-11-20T06:58:27;99970.75;;;10.10;100.00
59053;BME280;44843;44.728;10.396;2022-11-20T07:00:53;99975.47;;;10.18;100.00
59053;BME280;44843;44.728;10.396;2022-11-20T07:03:19;99970.00;;;10.08;100.00
59053;BME280;44843;44.728;10.396;2022-11-20T07:05:44;99975.75;;;10.14;100.00
59053;BME280;44843;44.728;10.396;2022-11-20T07:08:11;99987.66;;;10.18;100.00
59053;BME280;44843;44.728;10.396;2022-11-20T07:10:37;99995.28;;;10.21;100.00
59053;BME280;44843;44.728;10.396;2022-11-20T07:13:03;99993.59;;;10.34;100.00
59053;BME280;44843;44.728;10.396;2022-11-20T07:15:29;99990.66;;;10.53;100.00
59053;BME280;44843;44.728;10.396;2022-11-20T07:17:55;99990.41;;;10.70;100.00
59053;BME280;44843;44.728;10.396;2022-11-20T07:20:20;99991.41;;;10.82;100.00
59053;BME280;44843;44.728;10.396;2022-11-20T07:22:46;99998.28;;;10.83;100.00
59053;BME280;44843;44.728;10.396;2022-11-20T07:25:11;100004.41;;;10.69;100.00
59053;BME280;44843;44.728;10.396;2022-11-20T07:27:37;100013.41;;;10.78;100.00
59053;BME280;44843;44.728;10.396;2022-11-20T07:30:03;100009.94;;;10.78;100.00
59053;BME280;44843;44.728;10.396;2022-11-20T07:32:29;100008.28;;;10.77;100.00
59053;BME280;44843;44.728;10.396;2022-11-20T07:34:54;100016.00;;;10.78;100.00
59053;BME280;44843;44.728;10.396;2022-11-20T07:37:20;100019.16;;;10.83;100.00
59053;BME280;44843;44.728;10.396;2022-11-20T07:39:45;100025.78;;;10.75;100.00
59053;BME280;44843;44.728;10.396;2022-11-20T07:42:10;100018.09;;;10.86;100.00
59053;BME280;44843;44.728;10.396;2022-11-20T07:44:38;100027.91;;;10.82;100.00
59053;BME280;44843;44.728;10.396;2022-11-20T07:47:03;100031.56;;;10.92;100.00
59053;BME280;44843;44.728;10.396;2022-11-20T07:49:29;100030.22;;;11.00;100.00
59053;BME280;44843;44.728;10.396;2022-11-20T07:51:55;100040.09;;;11.09;100.00
59053;BME280;44843;44.728;10.396;2022-11-20T07:54:20;100044.91;;;11.15;100.00
59053;BME280;44843;44.728;10.396;2022-11-20T07:56:47;100050.53;;;11.09;100.00
59053;BME280;44843;44.728;10.396;2022-11-20T07:59:13;100056.13;;;11.03;100.00
59053;BME280;44843;44.728;10.396;2022-11-20T08:01:39;100048.09;;;11.06;100.00
59053;BME280;44843;44.728;10.396;2022-11-20T08:04:04;100048.22;;;11.17;100.00
59053;BME280;44843;44.728;10.396;2022-11-20T08:06:30;100045.34;;;11.34;100.00
59053;BME280;44843;44.728;10.396;2022-11-20T08:08:55;100048.06;;;11.33;100.00
59053;BME280;44843;44.728;10.396;2022-11-20T08:11:20;100054.22;;;11.45;100.00
59053;BME280;44843;44.728;10.396;2022-11-20T08:14:04;100057.91;;;11.55;100.00
59053;BME280;44843;44.728;10.396;2022-11-20T08:16:46;100053.50;;;11.55;100.00
59053;BME280;44843;44.728;10.396;2022-11-20T08:19:12;100057.66;;;11.45;100.00
59053;BME280;44843;44.728;10.396;2022-11-20T08:21:38;100059.53;;;11.43;100.00
59053;BME280;44843;44.728;10.396;2022-11-20T08:24:04;100070.19;;;11.27;100.00
59053;BME280;44843;44.728;10.396;2022-11-20T08:26:30;100069.25;;;11.28;100.00
59053;BME280;44843;44.728;10.396;2022-11-20T08:28:56;100068.72;;;11.36;100.00
59053;BME280;44843;44.728;10.396;2022-11-20T08:31:23;100072.91;;;11.39;100.00
59053;BME280;44843;44.728;10.396;2022-11-20T08:33:49;100069.25;;;11.28;100.00
59053;BME280;44843;44.728;10.396;2022-11-20T08:36:16;100075.22;;;11.30;100.00
59053;BME280;44843;44.728;10.396;2022-11-20T08:38:55;100079.81;;;11.40;100.00
59053;BME280;44843;44.728;10.396;2022-11-20T08:41:21;100079.19;;;11.36;100.00
59053;BME280;44843;44.728;10.396;2022-11-20T08:44:01;100077.31;;;11.38;100.00
59053;BME280;44843;44.728;10.396;2022-11-20T08:46:38;100080.66;;;11.40;100.00
59053;BME280;44843;44.728;10.396;2022-11-20T08:49:05;100084.50;;;11.34;100.00
59053;BME280;44843;44.728;10.396;2022-11-20T08:51:31;100090.44;;;11.37;100.00
59053;BME280;44843;44.728;10.396;2022-11-20T08:53:56;100092.75;;;11.28;100.00
59053;BME280;44843;44.728;10.396;2022-11-20T08:56:22;100083.03;;;11.30;100.00
59053;BME280;44843;44.728;10.396;2022-11-20T08:58:47;100094.94;;;11.34;100.00
59053;BME280;44843;44.728;10.396;2022-11-20T09:01:14;100083.16;;;11.42;100.00
59053;BME280;44843;44.728;10.396;2022-11-20T09:03:40;100078.66;;;11.57;100.00
59053;BME280;44843;44.728;10.396;2022-11-20T09:06:06;100082.44;;;11.78;100.00
59053;BME280;44843;44.728;10.396;2022-11-20T09:08:32;100079.66;;;11.81;100.00
59053;BME280;44843;44.728;10.396;2022-11-20T09:10:58;100080.91;;;11.88;100.00
59053;BME280;44843;44.728;10.396;2022-11-20T09:13:26;100079.88;;;11.91;100.00
59053;BME280;44843;44.728;10.396;2022-11-20T09:15:55;100081.75;;;11.89;100.00
59053;BME280;44843;44.728;10.396;2022-11-20T09:18:21;100080.81;;;11.90;100.00
59053;BME280;44843;44.728;10.396;2022-11-20T09:20:47;100090.19;;;11.80;100.00
59053;BME280;44843;44.728;10.396;2022-11-20T09:23:12;100092.47;;;11.84;100.00
59053;BME280;44843;44.728;10.396;2022-11-20T09:25:38;100096.03;;;11.70;100.00
59053;BME280;44843;44.728;10.396;2022-11-20T09:28:03;100093.22;;;11.73;100.00
59053;BME280;44843;44.728;10.396;2022-11-20T09:30:29;100094.91;;;11.74;100.00
59053;BME280;44843;44.728;10.396;2022-11-20T09:32:56;100100.84;;;11.77;100.00
59053;BME280;44843;44.728;10.396;2022-11-20T09:35:21;100093.22;;;11.73;100.00
59053;BME280;44843;44.728;10.396;2022-11-20T09:37:47;100096.97;;;11.69;100.00
59053;BME280;44843;44.728;10.396;2022-11-20T09:40:24;100093.53;;;11.82;100.00
59053;BME280;44843;44.728;10.396;2022-11-20T09:54:25;100091.56;;;11.85;100.00
59053;BME280;44843;44.728;10.396;2022-11-20T09:57:21;100094.03;;;11.87;100.00
59053;BME280;44843;44.728;10.396;2022-11-20T09:59:52;100093.88;;;11.90;100.00
59053;BME280;44843;44.728;10.396;2022-11-20T10:04:52;100089.88;;;12.23;100.00
59053;BME280;44843;44.728;10.396;2022-11-20T10:07:27;100088.72;;;12.27;100.00
59053;BME280;44843;44.728;10.396;2022-11-20T10:09:56;100095.63;;;12.28;100.00
59053;BME280;44843;44.728;10.396;2022-11-20T10:15:10;100098.13;;;12.29;100.00
59053;BME280;44843;44.728;10.396;2022-11-20T10:18:04;100090.81;;;12.22;100.00
59053;BME280;44843;44.728;10.396;2022-11-20T10:23:21;100087.16;;;11.86;100.00
59053;BME280;44843;44.728;10.396;2022-11-20T10:31:03;100082.88;;;12.10;100.00
59053;BME280;44843;44.728;10.396;2022-11-20T10:33:34;100083.72;;;11.85;100.00
59053;BME280;44843;44.728;10.396;2022-11-20T10:38:49;100075.28;;;11.94;100.00
59053;BME280;44843;44.728;10.396;2022-11-20T10:41:27;100076.09;;;11.95;100.00
59053;BME280;44843;44.728;10.396;2022-11-20T10:46:34;100069.81;;;12.10;100.00
59053;BME280;44843;44.728;10.396;2022-11-20T10:49:09;100067.03;;;12.01;100.00
59053;BME280;44843;44.728;10.396;2022-11-20T10:58:01;100050.03;;;12.56;100.00
59053;BME280;44843;44.728;10.396;2022-11-20T11:00:31;100044.22;;;12.40;100.00
59053;BME280;44843;44.728;10.396;2022-11-20T11:02:57;100046.53;;;12.44;100.00
59053;BME280;44843;44.728;10.396;2022-11-20T11:08:03;100045.09;;;12.40;100.00
59053;BME280;44843;44.728;10.396;2022-11-20T11:11:18;100042.88;;;11.97;100.00
59053;BME280;44843;44.728;10.396;2022-11-20T11:13:26;100052.03;;;12.15;100.00
59053;BME280;44843;44.728;10.396;2022-11-20T11:15:52;100038.44;;;12.23;100.00
59053;BME280;44843;44.728;10.396;2022-11-20T11:18:32;100035.41;;;12.16;100.00
59053;BME280;44843;44.728;10.396;2022-11-20T11:21:00;100033.66;;;12.41;100.00
59053;BME280;44843;44.728;10.396;2022-11-20T11:23:42;100035.78;;;12.36;100.00
59053;BME280;44843;44.728;10.396;2022-11-20T11:26:24;100024.16;;;12.40;100.00
59053;BME280;44843;44.728;10.396;2022-11-20T11:28:58;100028.59;;;12.27;100.00
59053;BME280;44843;44.728;10.396;2022-11-20T11:31:26;100021.94;;;12.47;100.00
59053;BME280;44843;44.728;10.396;2022-11-20T11:33:52;100023.00;;;12.44;100.00
59053;BME280;44843;44.728;10.396;2022-11-20T11:36:22;100021.41;;;12.42;100.00
59053;BME280;44843;44.728;10.396;2022-11-20T11:38:51;100025.66;;;12.31;100.00
59053;BME280;44843;44.728;10.396;2022-11-20T11:41:23;100025.66;;;12.31;100.00
59053;BME280;44843;44.728;10.396;2022-11-20T11:43:54;100016.91;;;12.44;100.00
59053;BME280;44843;44.728;10.396;2022-11-20T11:46:44;100027.53;;;12.66;100.00
59053;BME280;44843;44.728;10.396;2022-11-20T11:49:18;100017.31;;;12.74;100.00
59053;BME280;44843;44.728;10.396;2022-11-20T11:52:29;100012.63;;;12.91;100.00
59053;BME280;44843;44.728;10.396;2022-11-20T11:57:29;100001.38;;;13.02;100.00
59053;BME280;44843;44.728;10.396;2022-11-20T12:00:09;100000.00;;;12.85;100.00
59053;BME280;44843;44.728;10.396;2022-11-20T12:03:02;100008.44;;;12.77;100.00
59053;BME280;44843;44.728;10.396;2022-11-20T12:05:43;100014.38;;;12.79;100.00
59053;BME280;44843;44.728;10.396;2022-11-20T12:08:34;100011.81;;;12.42;100.00
59053;BME280;44843;44.728;10.396;2022-11-20T12:11:16;100013.72;;;12.64;100.00
59053;BME280;44843;44.728;10.396;2022-11-20T12:16:14;99997.13;;;12.52;100.00
59053;BME280;44843;44.728;10.396;2022-11-20T12:18:42;99997.97;;;12.53;100.00
59053;BME280;44843;44.728;10.396;2022-11-20T12:21:27;99995.41;;;12.64;100.00
59053;BME280;44843;44.728;10.396;2022-11-20T12:26:47;99995.50;;;12.63;100.00
59053;BME280;44843;44.728;10.396;2022-11-20T12:29:28;99993.38;;;12.68;100.00
59053;BME280;44843;44.728;10.396;2022-11-20T12:34:51;99987.47;;;13.01;100.00
59053;BME280;44843;44.728;10.396;2022-11-20T12:40:34;99984.72;;;13.03;100.00
59053;BME280;44843;44.728;10.396;2022-11-20T12:43:19;99984.94;;;12.99;100.00
59053;BME280;44843;44.728;10.396;2022-11-20T12:53:51;99975.66;;;12.95;100.00
59053;BME280;44843;44.728;10.396;2022-11-20T12:59:02;99968.81;;;12.70;100.00
59053;BME280;44843;44.728;10.396;2022-11-20T13:01:47;99971.13;;;12.62;100.00
59053;BME280;44843;44.728;10.396;2022-11-20T13:07:11;99970.56;;;12.46;100.00
59053;BME280;44843;44.728;10.396;2022-11-20T13:09:45;99968.38;;;12.64;100.00
59053;BME280;44843;44.728;10.396;2022-11-20T13:12:13;99961.28;;;12.66;100.00
59053;BME280;44843;44.728;10.396;2022-11-20T13:15:08;99957.38;;;12.71;100.00
59053;BME280;44843;44.728;10.396;2022-11-20T13:17:52;99950.94;;;12.64;100.00
59053;BME280;44843;44.728;10.396;2022-11-20T13:20:19;99955.97;;;12.78;100.00
59053;BME280;44843;44.728;10.396;2022-11-20T13:22:47;99952.09;;;12.95;100.00
59053;BME280;44843;44.728;10.396;2022-11-20T13:25:36;99946.41;;;13.02;100.00
59053;BME280;44843;44.728;10.396;2022-11-20T13:30:34;99947.16;;;13.15;100.00
59053;BME280;44843;44.728;10.396;2022-11-20T13:33:08;99938.94;;;13.08;100.00
59053;BME280;44843;44.728;10.396;2022-11-20T13:35:40;99936.31;;;13.08;100.00
59053;BME280;44843;44.728;10.396;2022-11-20T13:38:12;99937.00;;;12.99;100.00
59053;BME280;44843;44.728;10.396;2022-11-20T13:41:00;99942.09;;;13.01;100.00
59053;BME280;44843;44.728;10.396;2022-11-20T13:43:44;99937.44;;;12.82;100.00
59053;BME280;44843;44.728;10.396;2022-11-20T13:46:11;99935.38;;;12.74;100.00
59053;BME280;44843;44.728;10.396;2022-11-20T13:48:42;99947.63;;;12.73;100.00
59053;BME280;44843;44.728;10.396;2022-11-20T13:56:33;99933.69;;;12.97;100.00
59053;BME280;44843;44.728;10.396;2022-11-20T14:01:29;99933.16;;;12.81;100.00
59053;BME280;44843;44.728;10.396;2022-11-20T14:03:59;99940.19;;;12.91;100.00
59053;BME280;44843;44.728;10.396;2022-11-20T14:06:33;99941.63;;;12.95;100.00
59053;BME280;44843;44.728;10.396;2022-11-20T14:09:00;99943.06;;;12.88;100.00
59053;BME280;44843;44.728;10.396;2022-11-20T14:11:30;99934.41;;;13.10;100.00